Time;durP1;ratioP1;P1;durP2;ratioP2;P2;SDS_P1;SDS_P2;PMS_P1;PMS_P2;Temp;Humidity;BMP_temperature;BMP_pressure;BME280_temperature;BME280_humidity;BME280_pressure;Samples;Min_cycle;Max_cycle;Signal;HPM_P1;HPM_P2
2023/07/31 00:01:57;;;;;;;16.08;6.35;;;;;;;;;;4954816;29;20039;-83
2023/07/31 00:04:32;;;;;;;14.05;7.18;;;;;;;;;;4969687;28;20418;-82
2023/07/31 00:07:04;;;;;;;12.50;5.70;;;;;;;;;;4955792;29;20062;-83
2023/07/31 00:09:36;;;;;;;15.27;6.90;;;;;;;;;;4958632;28;20043;-82
2023/07/31 00:12:08;;;;;;;14.77;6.35;;;;;;;;;;4940863;28;20070;-82
2023/07/31 00:14:42;;;;;;;13.95;5.90;;;;;;;;;;4974361;28;20073;-82
2023/07/31 00:17:12;;;;;;;17.25;6.75;;;;;;;;;;4973577;28;20051;-83
2023/07/31 00:19:50;;;;;;;14.23;5.72;;;;;;;;;;4974032;28;20039;-83
2023/07/31 00:22:24;;;;;;;14.88;5.78;;;;;;;;;;4973842;28;20046;-83
2023/07/31 00:24:57;;;;;;;14.02;5.68;;;;;;;;;;4955738;28;20390;-81
2023/07/31 00:27:29;;;;;;;14.25;6.45;;;;;;;;;;4955342;28;20046;-82
2023/07/31 00:30:02;;;;;;;13.07;5.82;;;;;;;;;;4973044;28;20054;-82
2023/07/31 00:32:35;;;;;;;12.80;5.97;;;;;;;;;;4973333;28;20047;-82
2023/07/31 00:35:08;;;;;;;13.48;5.93;;;;;;;;;;4973193;28;20043;-82
2023/07/31 00:37:38;;;;;;;15.80;6.60;;;;;;;;;;4968811;28;20055;-83
2023/07/31 00:40:09;;;;;;;14.13;5.93;;;;;;;;;;4956145;28;20050;-83
2023/07/31 00:42:40;;;;;;;12.32;5.38;;;;;;;;;;4967962;28;20039;-82
2023/07/31 00:45:11;;;;;;;12.90;6.47;;;;;;;;;;4972891;28;20390;-83
2023/07/31 00:47:41;;;;;;;14.98;6.13;;;;;;;;;;4971562;28;20512;-82
2023/07/31 00:50:15;;;;;;;14.45;6.80;;;;;;;;;;4954853;28;20046;-83
2023/07/31 00:52:47;;;;;;;12.52;6.28;;;;;;;;;;4968013;28;20042;-83
2023/07/31 00:55:21;;;;;;;13.75;5.93;;;;;;;;;;4956654;28;20054;-82
2023/07/31 00:57:55;;;;;;;15.15;6.15;;;;;;;;;;4973202;28;20038;-82
2023/07/31 01:00:27;;;;;;;12.15;6.25;;;;;;;;;;4955764;28;20057;-81
2023/07/31 01:02:59;;;;;;;14.80;5.53;;;;;;;;;;4955932;28;20057;-82
2023/07/31 01:06:00;;;;;;;15.32;6.43;;;;;;;;;;4973860;28;20062;-82
2023/07/31 01:09:02;;;;;;;13.50;6.55;;;;;;;;;;4954122;28;20051;-83
2023/07/31 01:11:43;;;;;;;12.18;5.93;;;;;;;;;;4937341;28;20058;-82
2023/07/31 01:14:15;;;;;;;19.90;7.10;;;;;;;;;;4967626;28;20642;-82
2023/07/31 01:16:46;;;;;;;13.23;6.47;;;;;;;;;;4953681;29;20390;-82
2023/07/31 01:19:20;;;;;;;16.27;7.07;;;;;;;;;;4953529;29;20043;-82
2023/07/31 01:22:21;;;;;;;15.35;6.68;;;;;;;;;;4952615;29;20047;-81
2023/07/31 01:25:17;;;;;;;16.58;6.65;;;;;;;;;;4936611;29;20051;-82
2023/07/31 01:28:01;;;;;;;13.27;6.43;;;;;;;;;;4951887;29;20051;-82
2023/07/31 01:30:46;;;;;;;19.38;7.65;;;;;;;;;;4950619;29;20062;-82
2023/07/31 01:33:20;;;;;;;19.27;8.15;;;;;;;;;;4952148;29;20047;-82
2023/07/31 01:35:53;;;;;;;18.98;7.50;;;;;;;;;;4951464;29;20066;-82
2023/07/31 01:38:24;;;;;;;18.95;8.13;;;;;;;;;;4951379;29;20058;-81
2023/07/31 01:40:54;;;;;;;18.02;8.02;;;;;;;;;;4969476;28;20042;-80
2023/07/31 01:43:29;;;;;;;17.83;8.40;;;;;;;;;;4971823;28;20047;-81
2023/07/31 01:46:03;;;;;;;21.60;8.02;;;;;;;;;;4971672;28;20106;-81
2023/07/31 01:48:36;;;;;;;26.55;9.45;;;;;;;;;;4970392;28;20039;-82
2023/07/31 01:51:07;;;;;;;21.00;8.95;;;;;;;;;;4966969;28;20047;-81
2023/07/31 01:53:39;;;;;;;20.10;8.52;;;;;;;;;;4972044;28;20047;-83
2023/07/31 01:56:13;;;;;;;17.85;7.90;;;;;;;;;;4947151;28;20054;-82
2023/07/31 01:58:45;;;;;;;19.08;8.70;;;;;;;;;;4949401;28;20043;-82
2023/07/31 02:01:15;;;;;;;15.48;7.25;;;;;;;;;;4953834;28;20058;-82
2023/07/31 02:03:47;;;;;;;13.15;6.88;;;;;;;;;;4968943;28;20066;-82
2023/07/31 02:06:19;;;;;;;18.13;7.40;;;;;;;;;;4937042;29;20051;-82
2023/07/31 02:08:51;;;;;;;19.13;7.57;;;;;;;;;;4952414;28;20047;-83
2023/07/31 02:11:21;;;;;;;15.82;7.45;;;;;;;;;;4970102;28;20059;-82
2023/07/31 02:13:54;;;;;;;18.02;6.97;;;;;;;;;;4952243;28;20055;-82
2023/07/31 02:16:26;;;;;;;16.10;8.20;;;;;;;;;;4970722;28;20043;-82
2023/07/31 02:18:56;;;;;;;16.95;7.70;;;;;;;;;;4971697;28;20058;-82
2023/07/31 02:21:27;;;;;;;19.42;7.78;;;;;;;;;;4953480;28;20047;-82
2023/07/31 02:23:59;;;;;;;21.02;8.75;;;;;;;;;;4971558;28;20522;-82
2023/07/31 02:26:31;;;;;;;23.50;8.88;;;;;;;;;;4952713;28;20058;-82
2023/07/31 02:29:01;;;;;;;16.08;7.85;;;;;;;;;;4935503;29;20564;-82
2023/07/31 02:31:31;;;;;;;17.67;7.97;;;;;;;;;;4964515;28;20051;-82
2023/07/31 02:34:02;;;;;;;18.52;7.70;;;;;;;;;;4954482;28;20500;-83
2023/07/31 02:36:33;;;;;;;19.55;7.93;;;;;;;;;;4954144;28;20145;-82
2023/07/31 02:39:07;;;;;;;16.27;7.05;;;;;;;;;;4971170;28;20271;-82
2023/07/31 02:41:38;;;;;;;19.23;7.97;;;;;;;;;;4953768;28;20057;-82
2023/07/31 02:44:08;;;;;;;18.75;7.65;;;;;;;;;;4956926;28;20516;-82
2023/07/31 02:46:41;;;;;;;21.50;7.93;;;;;;;;;;4954008;28;20062;-83
2023/07/31 02:49:14;;;;;;;24.10;9.48;;;;;;;;;;4973180;28;20054;-81
2023/07/31 02:51:47;;;;;;;22.92;10.00;;;;;;;;;;4958564;28;20039;-83
2023/07/31 02:54:17;;;;;;;16.58;8.20;;;;;;;;;;4973809;28;20039;-83
2023/07/31 02:56:48;;;;;;;19.80;8.18;;;;;;;;;;4957124;28;20050;-82
2023/07/31 02:59:21;;;;;;;16.38;7.97;;;;;;;;;;4970291;28;20445;-83
2023/07/31 03:01:53;;;;;;;15.38;7.22;;;;;;;;;;4939042;29;20055;-83
2023/07/31 03:04:23;;;;;;;15.23;7.32;;;;;;;;;;4954866;28;20058;-83
2023/07/31 03:06:54;;;;;;;15.45;7.10;;;;;;;;;;4957224;28;20055;-84
2023/07/31 03:09:28;;;;;;;16.77;7.65;;;;;;;;;;4956613;28;20453;-83
2023/07/31 03:12:01;;;;;;;17.95;6.95;;;;;;;;;;4958922;28;20046;-84
2023/07/31 03:14:31;;;;;;;18.52;6.82;;;;;;;;;;4958264;28;20051;-83
2023/07/31 03:17:02;;;;;;;16.58;7.70;;;;;;;;;;4959188;28;20069;-84
2023/07/31 03:19:36;;;;;;;13.52;6.60;;;;;;;;;;4968878;28;20066;-83
2023/07/31 03:22:08;;;;;;;23.40;8.23;;;;;;;;;;4955911;29;20051;-83
2023/07/31 03:24:38;;;;;;;16.70;6.82;;;;;;;;;;4956667;29;20054;-84
2023/07/31 03:27:09;;;;;;;17.00;6.70;;;;;;;;;;4956069;29;20047;-84
2023/07/31 03:29:41;;;;;;;12.85;6.25;;;;;;;;;;4957694;29;20047;-80
2023/07/31 03:32:13;;;;;;;21.75;7.57;;;;;;;;;;4957593;29;20051;-81
2023/07/31 03:34:44;;;;;;;18.63;7.15;;;;;;;;;;4956108;29;20482;-81
2023/07/31 03:37:15;;;;;;;21.08;6.45;;;;;;;;;;4957557;29;20047;-81
2023/07/31 03:39:45;;;;;;;13.30;6.38;;;;;;;;;;4957590;29;20054;-81
2023/07/31 03:42:17;;;;;;;;;;;;;;;;;;4956938;29;20394;-81
2023/07/31 03:44:47;;;;;;;13.55;6.07;;;;;;;;;;4955558;29;19922;-81
2023/07/31 03:47:18;;;;;;;13.77;6.85;;;;;;;;;;4957016;29;20047;-81
2023/07/31 03:49:51;;;;;;;13.88;6.75;;;;;;;;;;4958638;29;20047;-81
2023/07/31 03:52:22;;;;;;;15.55;6.60;;;;;;;;;;4955309;28;20051;-80
2023/07/31 03:54:54;;;;;;;12.98;6.60;;;;;;;;;;4955987;28;20405;-80
2023/07/31 03:57:24;;;;;;;13.98;7.53;;;;;;;;;;4988151;28;20402;-80
2023/07/31 03:59:54;;;;;;;16.38;5.93;;;;;;;;;;4957529;29;20389;-81
2023/07/31 04:02:25;;;;;;;14.48;6.45;;;;;;;;;;4955757;29;20055;-80
2023/07/31 04:05:01;;;;;;;14.63;6.40;;;;;;;;;;4957185;29;20039;-80
2023/07/31 04:07:32;;;;;;;15.60;6.97;;;;;;;;;;4956385;29;20482;-81
2023/07/31 04:10:02;;;;;;;17.65;7.13;;;;;;;;;;4956639;29;20493;-81
2023/07/31 04:12:35;;;;;;;18.30;7.20;;;;;;;;;;4957584;29;20051;-81
2023/07/31 04:15:07;;;;;;;15.02;6.78;;;;;;;;;;4957026;29;20055;-82
2023/07/31 04:17:40;;;;;;;16.63;7.22;;;;;;;;;;4956830;28;20058;-81
2023/07/31 04:20:11;;;;;;;14.27;6.65;;;;;;;;;;4956080;29;20051;-80
2023/07/31 04:22:46;;;;;;;16.42;7.22;;;;;;;;;;4940002;29;20055;-81
2023/07/31 04:25:19;;;;;;;15.40;6.43;;;;;;;;;;4957393;29;20055;-82
2023/07/31 04:27:52;;;;;;;16.95;7.55;;;;;;;;;;4956586;29;20039;-81
2023/07/31 04:30:22;;;;;;;12.07;6.53;;;;;;;;;;4955038;29;20062;-82
2023/07/31 04:32:53;;;;;;;19.98;6.85;;;;;;;;;;4956348;29;20517;-82
2023/07/31 04:35:27;;;;;;;14.82;6.88;;;;;;;;;;4955224;29;20046;-82
2023/07/31 04:38:01;;;;;;;18.23;7.00;;;;;;;;;;4954616;29;20051;-82
2023/07/31 04:40:32;;;;;;;19.75;6.93;;;;;;;;;;4957217;29;20043;-81
2023/07/31 04:43:02;;;;;;;14.70;6.93;;;;;;;;;;4955810;29;20051;-83
2023/07/31 04:45:36;;;;;;;14.55;6.63;;;;;;;;;;4956565;29;20047;-81
2023/07/31 04:48:08;;;;;;;12.25;6.35;;;;;;;;;;4955197;29;20039;-82
2023/07/31 04:50:38;;;;;;;13.23;6.32;;;;;;;;;;4971308;28;20058;-81
2023/07/31 04:53:10;;;;;;;16.27;7.07;;;;;;;;;;4956345;29;20055;-81
2023/07/31 04:55:42;;;;;;;13.48;5.97;;;;;;;;;;4956831;29;20059;-81
2023/07/31 04:58:16;;;;;;;13.32;6.50;;;;;;;;;;4954287;29;20052;-82
2023/07/31 05:00:47;;;;;;;14.35;6.88;;;;;;;;;;4987451;28;20054;-82
2023/07/31 05:03:24;;;;;;;14.52;7.60;;;;;;;;;;4954179;28;20424;-81
2023/07/31 05:05:54;;;;;;;14.68;6.90;;;;;;;;;;4955704;29;20039;-81
2023/07/31 05:08:24;;;;;;;16.33;6.63;;;;;;;;;;4938760;29;20067;-81
2023/07/31 05:10:57;;;;;;;14.77;6.63;;;;;;;;;;4955087;29;20047;-81
2023/07/31 05:13:29;;;;;;;17.40;7.07;;;;;;;;;;4955279;29;20383;-81
2023/07/31 05:16:00;;;;;;;17.30;7.30;;;;;;;;;;4970252;28;20490;-82
2023/07/31 05:18:34;;;;;;;12.02;5.90;;;;;;;;;;4955218;29;20047;-82
2023/07/31 05:21:04;;;;;;;13.55;6.45;;;;;;;;;;4955548;29;20058;-81
2023/07/31 05:23:37;;;;;;;16.35;6.85;;;;;;;;;;4955247;29;20047;-82
2023/07/31 05:26:11;;;;;;;14.10;6.00;;;;;;;;;;4954341;29;20077;-81
2023/07/31 05:28:44;;;;;;;14.77;6.05;;;;;;;;;;4955793;29;20505;-81
2023/07/31 05:31:14;;;;;;;16.15;5.97;;;;;;;;;;4955856;29;20047;-81
2023/07/31 05:33:50;;;;;;;19.38;6.63;;;;;;;;;;4954018;29;20062;-81
2023/07/31 05:36:25;;;;;;;22.60;7.10;;;;;;;;;;4969977;28;20059;-82
2023/07/31 05:38:56;;;;;;;14.60;6.20;;;;;;;;;;4955656;29;20061;-81
2023/07/31 05:41:26;;;;;;;11.73;6.00;;;;;;;;;;4955636;29;20055;-81
2023/07/31 05:43:56;;;;;;;13.88;5.53;;;;;;;;;;4954277;28;20070;-82
2023/07/31 05:46:31;;;;;;;14.07;5.65;;;;;;;;;;4953927;29;20058;-82
2023/07/31 05:49:01;;;;;;;13.75;6.03;;;;;;;;;;4953368;29;20051;-81
2023/07/31 05:51:32;;;;;;;12.00;5.50;;;;;;;;;;4955664;29;20051;-81
2023/07/31 05:54:03;;;;;;;11.80;6.05;;;;;;;;;;4985868;28;20056;-81
2023/07/31 05:56:39;;;;;;;13.18;6.22;;;;;;;;;;4969262;28;20518;-82
2023/07/31 05:59:13;;;;;;;15.27;6.22;;;;;;;;;;4985547;28;20056;-81
2023/07/31 06:01:45;;;;;;;14.82;7.18;;;;;;;;;;4953592;29;20058;-82
2023/07/31 06:04:16;;;;;;;13.80;7.18;;;;;;;;;;4954082;29;20058;-81
2023/07/31 06:06:49;;;;;;;25.75;7.88;;;;;;;;;;4954234;29;20490;-81
2023/07/31 06:09:22;;;;;;;13.80;6.60;;;;;;;;;;4955156;29;20047;-81
2023/07/31 06:11:53;;;;;;;14.95;7.35;;;;;;;;;;4953211;29;20051;-82
2023/07/31 06:14:22;;;;;;;13.05;5.97;;;;;;;;;;4955079;29;20058;-82
2023/07/31 06:16:57;;;;;;;11.90;6.07;;;;;;;;;;4957659;29;20043;-82
2023/07/31 06:19:28;;;;;;;16.27;7.57;;;;;;;;;;4990075;28;20051;-82
2023/07/31 06:21:59;;;;;;;13.77;6.88;;;;;;;;;;4957933;29;20047;-82
2023/07/31 06:24:29;;;;;;;16.40;6.75;;;;;;;;;;4959036;29;20043;-81
2023/07/31 06:27:03;;;;;;;16.38;7.43;;;;;;;;;;4957682;29;20474;-82
2023/07/31 06:29:34;;;;;;;16.40;6.88;;;;;;;;;;4989403;28;20521;-82
2023/07/31 06:32:06;;;;;;;14.40;6.38;;;;;;;;;;4958470;29;20043;-82
2023/07/31 06:34:36;;;;;;;13.18;5.82;;;;;;;;;;4958897;29;20054;-82
2023/07/31 06:37:09;;;;;;;18.02;5.82;;;;;;;;;;4988749;28;20055;-81
2023/07/31 06:39:41;;;;;;;14.45;6.00;;;;;;;;;;4988536;28;20058;-82
2023/07/31 06:42:12;;;;;;;16.13;5.75;;;;;;;;;;4956394;29;20076;-81
2023/07/31 06:44:42;;;;;;;10.18;5.07;;;;;;;;;;4958719;29;20058;-81
2023/07/31 06:47:13;;;;;;;14.07;5.88;;;;;;;;;;4956946;29;20051;-82
2023/07/31 06:49:43;;;;;;;13.45;5.50;;;;;;;;;;4941328;29;20067;-82
2023/07/31 06:52:15;;;;;;;10.38;5.10;;;;;;;;;;4958171;29;20048;-83
2023/07/31 06:55:04;;;;;;;12.80;5.72;;;;;;;;;;4941467;29;20062;-81
2023/07/31 06:57:37;;;;;;;12.15;5.55;;;;;;;;;;4956890;29;20039;-82
2023/07/31 07:00:12;;;;;;;12.18;5.63;;;;;;;;;;4972147;28;20070;-82
2023/07/31 07:02:43;;;;;;;9.93;5.22;;;;;;;;;;4957780;29;20054;-82
2023/07/31 07:05:15;;;;;;;13.90;5.35;;;;;;;;;;4958111;29;20043;-83
2023/07/31 07:07:51;;;;;;;13.93;5.13;;;;;;;;;;4956964;29;20097;-82
2023/07/31 07:10:22;;;;;;;13.68;5.20;;;;;;;;;;4958193;29;20517;-83
2023/07/31 07:12:55;;;;;;;10.15;4.88;;;;;;;;;;4958561;29;20054;-82
2023/07/31 07:15:28;;;;;;;10.05;5.38;;;;;;;;;;4958092;29;20063;-83
2023/07/31 07:18:00;;;;;;;11.20;5.05;;;;;;;;;;4955846;29;20043;-82
2023/07/31 07:20:31;;;;;;;10.55;5.05;;;;;;;;;;4957913;29;20039;-83
2023/07/31 07:23:01;;;;;;;12.18;5.50;;;;;;;;;;4957980;29;20054;-82
2023/07/31 07:25:32;;;;;;;11.63;5.10;;;;;;;;;;4957521;29;20081;-82
2023/07/31 07:28:10;;;;;;;12.07;4.78;;;;;;;;;;4956458;28;20043;-83
2023/07/31 07:30:53;;;;;;;11.65;5.22;;;;;;;;;;4957189;29;20055;-83
2023/07/31 07:33:24;;;;;;;10.80;4.75;;;;;;;;;;4956438;29;20054;-83
2023/07/31 07:35:54;;;;;;;12.30;4.78;;;;;;;;;;4957233;29;20051;-82
2023/07/31 07:38:24;;;;;;;12.05;5.38;;;;;;;;;;4957165;29;20055;-82
2023/07/31 07:40:57;;;;;;;13.57;5.32;;;;;;;;;;4971443;28;20058;-82
2023/07/31 07:43:27;;;;;;;15.25;5.63;;;;;;;;;;4957226;29;20043;-82
2023/07/31 07:45:59;;;;;;;11.18;5.38;;;;;;;;;;4957662;29;20493;-82
2023/07/31 07:48:29;;;;;;;9.68;5.07;;;;;;;;;;4958520;28;20057;-82
2023/07/31 07:51:08;;;;;;;11.02;5.00;;;;;;;;;;4976225;28;20046;-82
2023/07/31 07:53:40;;;;;;;12.50;5.45;;;;;;;;;;4976317;28;20074;-82
2023/07/31 07:56:11;;;;;;;10.27;5.00;;;;;;;;;;4976647;28;20054;-82
2023/07/31 07:58:41;;;;;;;11.10;5.82;;;;;;;;;;4943251;28;20050;-82
2023/07/31 08:01:13;;;;;;;11.00;5.45;;;;;;;;;;4959716;28;20043;-82
2023/07/31 08:03:45;;;;;;;11.02;4.95;;;;;;;;;;4959744;28;20362;-82
2023/07/31 08:06:17;;;;;;;11.23;5.75;;;;;;;;;;4964712;28;20059;-82
2023/07/31 08:08:49;;;;;;;15.00;5.57;;;;;;;;;;4956997;29;20039;-82
2023/07/31 08:11:23;;;;;;;11.88;5.25;;;;;;;;;;4957099;29;20047;-82
2023/07/31 08:13:56;;;;;;;11.88;5.35;;;;;;;;;;4971284;28;20108;-81
2023/07/31 08:16:28;;;;;;;12.60;5.25;;;;;;;;;;4956914;29;20067;-81
2023/07/31 08:18:58;;;;;;;13.82;5.93;;;;;;;;;;4956727;29;20413;-82
2023/07/31 08:21:30;;;;;;;12.88;5.03;;;;;;;;;;4971312;28;20509;-82
2023/07/31 08:24:03;;;;;;;11.00;5.70;;;;;;;;;;4970985;28;20051;-82
2023/07/31 08:26:34;;;;;;;13.18;6.32;;;;;;;;;;4956813;29;20062;-82
2023/07/31 08:29:05;;;;;;;11.38;5.32;;;;;;;;;;4954950;29;20062;-82
2023/07/31 08:31:36;;;;;;;15.63;5.85;;;;;;;;;;4956751;29;20051;-82
2023/07/31 08:34:07;;;;;;;16.38;6.85;;;;;;;;;;4956853;29;20043;-82
2023/07/31 08:36:38;;;;;;;13.20;6.45;;;;;;;;;;4956214;29;20056;-82
2023/07/31 08:39:11;;;;;;;15.63;6.88;;;;;;;;;;4956477;28;20344;-81
2023/07/31 08:41:41;;;;;;;17.83;7.65;;;;;;;;;;4954886;29;20054;-82
2023/07/31 08:44:14;;;;;;;15.27;7.35;;;;;;;;;;4956347;29;20043;-82
2023/07/31 08:46:47;;;;;;;13.55;6.70;;;;;;;;;;4956118;29;20042;-81
2023/07/31 08:49:21;;;;;;;14.80;6.57;;;;;;;;;;4956172;29;20051;-82
2023/07/31 08:51:54;;;;;;;15.50;6.25;;;;;;;;;;4956382;29;20051;-82
2023/07/31 08:54:30;;;;;;;15.15;6.28;;;;;;;;;;4954382;29;20058;-82
2023/07/31 08:57:06;;;;;;;16.00;6.50;;;;;;;;;;4956487;29;20378;-82
2023/07/31 08:59:38;;;;;;;13.82;6.90;;;;;;;;;;4954809;29;20039;-82
2023/07/31 09:02:09;;;;;;;11.82;5.90;;;;;;;;;;4970741;28;20051;-81
2023/07/31 09:04:40;;;;;;;14.40;5.45;;;;;;;;;;4956081;29;20051;-81
2023/07/31 09:07:16;;;;;;;13.60;5.95;;;;;;;;;;4955903;29;20043;-82
2023/07/31 09:09:48;;;;;;;13.95;6.25;;;;;;;;;;4956002;29;20042;-82
2023/07/31 09:12:19;;;;;;;11.80;5.63;;;;;;;;;;4955698;29;20043;-82
2023/07/31 09:14:50;;;;;;;10.50;5.38;;;;;;;;;;4955680;29;20394;-82
2023/07/31 09:17:36;;;;;;;11.15;4.70;;;;;;;;;;4970287;28;20055;-82
2023/07/31 09:20:17;;;;;;;10.60;4.50;;;;;;;;;;4953369;29;20048;-81
2023/07/31 09:22:49;;;;;;;14.70;4.90;;;;;;;;;;4953714;29;20494;-82
2023/07/31 09:25:28;;;;;;;11.32;4.50;;;;;;;;;;4955784;29;20047;-82
2023/07/31 09:28:04;;;;;;;9.20;4.75;;;;;;;;;;4955305;29;20063;-82
2023/07/31 09:30:50;;;;;;;9.05;4.38;;;;;;;;;;4955942;29;20047;-82
2023/07/31 09:37:40;;;;;;;19.60;9.60;;;;;;;;;;4945338;28;20047;-82
2023/07/31 09:40:32;;;;;;;15.05;8.30;;;;;;;;;;4955387;29;20047;-82
2023/07/31 09:43:06;;;;;;;20.50;7.30;;;;;;;;;;4953803;29;20047;-82
2023/07/31 09:45:42;;;;;;;17.45;7.78;;;;;;;;;;4938897;29;20051;-82
2023/07/31 09:48:17;;;;;;;12.85;7.10;;;;;;;;;;4953573;29;20058;-82
2023/07/31 09:50:50;;;;;;;12.27;5.53;;;;;;;;;;4953695;29;20047;-81
2023/07/31 09:53:31;;;;;;;10.82;5.65;;;;;;;;;;4955992;29;20051;-82
2023/07/31 09:56:03;;;;;;;14.15;4.97;;;;;;;;;;4956353;29;20051;-82
2023/07/31 09:58:36;;;;;;;11.75;4.82;;;;;;;;;;4954442;29;20062;-81
2023/07/31 10:01:13;;;;;;;14.63;5.35;;;;;;;;;;4954194;29;20048;-82
2023/07/31 10:03:47;;;;;;;12.30;5.93;;;;;;;;;;4954579;29;20039;-81
2023/07/31 10:06:19;;;;;;;10.60;5.40;;;;;;;;;;4968285;28;20482;-82
2023/07/31 10:08:53;;;;;;;12.02;5.10;;;;;;;;;;4969885;28;20058;-82
2023/07/31 10:11:30;;;;;;;11.63;5.03;;;;;;;;;;4952304;28;20047;-82
2023/07/31 10:14:05;;;;;;;12.80;5.70;;;;;;;;;;4971316;28;20042;-81
2023/07/31 10:16:43;;;;;;;13.48;6.47;;;;;;;;;;4974566;28;20042;-82
2023/07/31 10:19:14;;;;;;;10.85;5.88;;;;;;;;;;4974044;28;20050;-82
2023/07/31 10:21:49;;;;;;;15.57;6.30;;;;;;;;;;4971815;28;20059;-82
2023/07/31 10:24:22;;;;;;;13.98;7.22;;;;;;;;;;4974336;28;20398;-82
2023/07/31 10:26:57;;;;;;;18.23;8.93;;;;;;;;;;4956037;28;20051;-82
2023/07/31 10:29:29;;;;;;;24.80;11.52;;;;;;;;;;4973898;28;20054;-81
2023/07/31 10:32:06;;;;;;;20.48;9.32;;;;;;;;;;4973763;28;20076;-81
2023/07/31 10:34:41;;;;;;;15.93;8.40;;;;;;;;;;4974008;28;20043;-82
2023/07/31 10:37:26;;;;;;;14.90;7.18;;;;;;;;;;4940468;28;20061;-81
2023/07/31 10:40:09;;;;;;;18.92;8.43;;;;;;;;;;4972726;28;20054;-81
2023/07/31 10:42:54;;;;;;;22.77;9.43;;;;;;;;;;4972377;28;20054;-82
2023/07/31 10:45:40;;;;;;;23.40;9.93;;;;;;;;;;4974014;28;20058;-82
2023/07/31 10:48:16;;;;;;;23.10;9.25;;;;;;;;;;4974105;28;20057;-82
2023/07/31 10:50:55;;;;;;;19.02;8.50;;;;;;;;;;4973843;28;20378;-82
2023/07/31 10:53:41;;;;;;;17.75;7.30;;;;;;;;;;4954882;29;20047;-82
2023/07/31 10:56:13;;;;;;;18.55;7.97;;;;;;;;;;4952626;29;20047;-82
2023/07/31 10:59:01;;;;;;;18.08;7.53;;;;;;;;;;4954358;29;20490;-82
2023/07/31 11:01:56;;;;;;;20.10;7.97;;;;;;;;;;4962536;28;20046;-82
2023/07/31 11:04:32;;;;;;;19.80;8.07;;;;;;;;;;4977194;28;20043;-82
2023/07/31 11:07:06;;;;;;;24.60;9.43;;;;;;;;;;4955395;29;20048;-84
2023/07/31 11:09:39;;;;;;;17.48;8.18;;;;;;;;;;4958046;29;20044;-82
2023/07/31 11:12:11;;;;;;;16.60;7.80;;;;;;;;;;4956699;29;20051;-83
2023/07/31 11:14:43;;;;;;;20.35;8.38;;;;;;;;;;4941067;29;20039;-82
2023/07/31 11:17:13;;;;;;;13.30;6.82;;;;;;;;;;4940125;29;20058;-81
2023/07/31 11:19:45;;;;;;;22.13;10.13;;;;;;;;;;4958268;29;20054;-82
2023/07/31 11:22:15;;;;;;;22.52;10.50;;;;;;;;;;4957910;29;20048;-82
2023/07/31 11:24:48;;;;;;;26.67;11.25;;;;;;;;;;4940230;29;20047;-82
2023/07/31 11:27:21;;;;;;;26.42;10.80;;;;;;;;;;4971916;28;20048;-82
2023/07/31 11:29:54;;;;;;;16.15;8.38;;;;;;;;;;4962241;28;20461;-83
2023/07/31 11:32:25;;;;;;;19.83;9.48;;;;;;;;;;4974928;28;20059;-85
2023/07/31 11:34:57;;;;;;;21.88;9.65;;;;;;;;;;4977159;28;20069;-83
2023/07/31 11:37:43;;;;;;;24.85;10.25;;;;;;;;;;4976536;28;20062;-82
2023/07/31 11:40:18;;;;;;;20.02;8.07;;;;;;;;;;4977172;28;20062;-83
2023/07/31 11:42:58;;;;;;;27.73;12.90;;;;;;;;;;4943912;28;20401;-83
2023/07/31 11:45:30;;;;;;;27.17;13.48;;;;;;;;;;4959633;28;20047;-82
2023/07/31 11:48:04;;;;;;;27.70;12.80;;;;;;;;;;4976600;28;20046;-83
2023/07/31 11:50:36;;;;;;;29.15;14.95;;;;;;;;;;4976752;28;20050;-83
2023/07/31 11:53:09;;;;;;;36.25;14.32;;;;;;;;;;4976706;28;20055;-83
2023/07/31 11:55:40;;;;;;;27.85;14.48;;;;;;;;;;4958608;28;20057;-83
2023/07/31 11:58:18;;;;;;;27.15;14.05;;;;;;;;;;4976523;28;20393;-84
2023/07/31 12:00:49;;;;;;;28.38;14.35;;;;;;;;;;4975400;28;20049;-83
2023/07/31 12:03:22;;;;;;;30.55;14.55;;;;;;;;;;4938077;28;20077;-84
2023/07/31 12:05:55;;;;;;;28.30;13.55;;;;;;;;;;4975060;28;20093;-83
2023/07/31 12:08:31;;;;;;;32.80;13.70;;;;;;;;;;4975957;28;20409;-85
2023/07/31 12:11:06;;;;;;;30.40;14.30;;;;;;;;;;4956738;28;20050;-84
2023/07/31 12:13:38;;;;;;;30.08;12.57;;;;;;;;;;4954432;28;20047;-84
2023/07/31 12:16:11;;;;;;;28.52;13.05;;;;;;;;;;4955723;28;20046;-84
2023/07/31 12:18:46;;;;;;;27.10;13.60;;;;;;;;;;4973421;28;20045;-83
2023/07/31 12:21:17;;;;;;;38.70;18.58;;;;;;;;;;4954177;28;20521;-84
2023/07/31 12:23:53;;;;;;;32.40;15.32;;;;;;;;;;4973841;28;20046;-83
2023/07/31 12:26:34;;;;;;;30.15;14.98;;;;;;;;;;4975735;28;20401;-83
2023/07/31 12:29:09;;;;;;;30.52;13.07;;;;;;;;;;4958898;28;20054;-83
2023/07/31 12:31:42;;;;;;;24.65;13.07;;;;;;;;;;4956476;29;20386;-82
2023/07/31 12:34:23;;;;;;;26.05;11.75;;;;;;;;;;4961027;28;20046;-82
2023/07/31 12:36:55;;;;;;;23.58;11.55;;;;;;;;;;4974498;28;20516;-83
2023/07/31 12:39:28;;;;;;;23.98;11.73;;;;;;;;;;4958508;28;20051;-84
2023/07/31 12:41:58;;;;;;;117.75;59.00;;;;;;;;;;4958268;28;20489;-87
2023/07/31 12:44:29;;;;;;;37.80;22.77;;;;;;;;;;4977669;28;20057;-83
2023/07/31 12:47:01;;;;;;;34.83;15.20;;;;;;;;;;4958621;28;20054;-83
2023/07/31 12:49:35;;;;;;;43.90;23.10;;;;;;;;;;4975381;28;20050;-83
2023/07/31 12:52:05;;;;;;;27.67;12.98;;;;;;;;;;4975513;28;20054;-84
2023/07/31 12:54:36;;;;;;;26.67;11.93;;;;;;;;;;4975589;28;20046;-84
2023/07/31 12:57:08;;;;;;;18.98;9.65;;;;;;;;;;4975627;28;20097;-82
2023/07/31 12:59:38;;;;;;;19.45;8.57;;;;;;;;;;4976144;28;20051;-83
2023/07/31 13:02:08;;;;;;;28.75;12.35;;;;;;;;;;4976418;28;20051;-84
2023/07/31 13:04:40;;;;;;;16.95;8.48;;;;;;;;;;4975342;28;20047;-84
2023/07/31 13:07:12;;;;;;;21.38;8.18;;;;;;;;;;4957955;28;20058;-83
2023/07/31 13:09:43;;;;;;;12.57;7.30;;;;;;;;;;4957059;28;20055;-83
2023/07/31 13:12:17;;;;;;;14.63;7.30;;;;;;;;;;4965840;28;20062;-83
2023/07/31 13:14:47;;;;;;;18.08;8.32;;;;;;;;;;4974615;28;20047;-83
2023/07/31 13:17:22;;;;;;;19.23;8.52;;;;;;;;;;4976767;28;20047;-82
2023/07/31 13:19:53;;;;;;;22.23;10.73;;;;;;;;;;4972876;28;20055;-83
2023/07/31 13:22:24;;;;;;;17.45;7.70;;;;;;;;;;4976123;28;20054;-82
2023/07/31 13:24:58;;;;;;;36.13;16.23;;;;;;;;;;4976161;28;20493;-83
2023/07/31 13:27:30;;;;;;;53.80;21.90;;;;;;;;;;4974321;28;20493;-83
2023/07/31 13:30:02;;;;;;;35.97;15.80;;;;;;;;;;4974748;28;20058;-82
2023/07/31 13:32:38;;;;;;;33.90;17.08;;;;;;;;;;4974637;28;20051;-83
2023/07/31 13:35:11;;;;;;;10.48;6.13;;;;;;;;;;4975225;28;20505;-83
2023/07/31 13:37:41;;;;;;;7.55;4.45;;;;;;;;;;4975160;28;20055;-82
2023/07/31 13:40:14;;;;;;;12.75;6.68;;;;;;;;;;4956812;28;20058;-83
2023/07/31 13:42:48;;;;;;;14.57;7.47;;;;;;;;;;4974807;28;20046;-83
2023/07/31 13:45:19;;;;;;;9.45;5.22;;;;;;;;;;4975253;28;20059;-84
2023/07/31 13:47:51;;;;;;;8.45;4.93;;;;;;;;;;4974681;28;20058;-83
2023/07/31 13:50:22;;;;;;;12.50;5.30;;;;;;;;;;4953324;29;20054;-83
2023/07/31 13:52:54;;;;;;;12.18;7.20;;;;;;;;;;4954139;29;20058;-83
2023/07/31 13:55:25;;;;;;;11.00;6.18;;;;;;;;;;4952801;29;20490;-84
2023/07/31 13:57:55;;;;;;;10.27;5.60;;;;;;;;;;4953113;29;20058;-82
2023/07/31 14:00:28;;;;;;;14.82;10.13;;;;;;;;;;4954118;29;20043;-83
2023/07/31 14:03:00;;;;;;;18.33;5.90;;;;;;;;;;4937103;29;20043;-84
2023/07/31 14:05:31;;;;;;;12.68;5.85;;;;;;;;;;4953401;29;20501;-84
2023/07/31 14:08:01;;;;;;;18.92;6.30;;;;;;;;;;4954004;29;20422;-84
2023/07/31 14:10:34;;;;;;;9.90;4.68;;;;;;;;;;4952422;28;20494;-84
2023/07/31 14:13:08;;;;;;;12.48;4.70;;;;;;;;;;4953460;29;20055;-83
2023/07/31 14:15:39;;;;;;;7.20;4.60;;;;;;;;;;4954297;29;20066;-84
2023/07/31 14:18:13;;;;;;;8.90;4.60;;;;;;;;;;4938309;29;20494;-84
2023/07/31 14:20:46;;;;;;;7.70;4.47;;;;;;;;;;4954982;29;20521;-85
2023/07/31 14:23:19;;;;;;;;;;;;;;;;;;4954398;29;20054;-84
2023/07/31 14:25:49;;;;;;;10.02;4.88;;;;;;;;;;4954208;29;19922;-85
2023/07/31 14:28:47;;;;;;;8.10;4.25;;;;;;;;;;4953147;29;20047;-85
2023/07/31 14:31:20;;;;;;;9.27;5.35;;;;;;;;;;4953458;29;20383;-83
2023/07/31 14:33:53;;;;;;;9.15;4.03;;;;;;;;;;4953438;29;20043;-84
2023/07/31 14:36:26;;;;;;;7.55;4.75;;;;;;;;;;4955524;28;20066;-85
2023/07/31 14:39:22;;;;;;;7.68;4.80;;;;;;;;;;4959776;28;20070;-83
2023/07/31 14:41:52;;;;;;;7.88;4.53;;;;;;;;;;4978633;28;20054;-84
2023/07/31 14:44:26;;;;;;;8.95;5.80;;;;;;;;;;4980212;28;20043;-84
2023/07/31 14:46:56;;;;;;;8.07;4.47;;;;;;;;;;4977225;28;20039;-83
2023/07/31 14:49:28;;;;;;;7.32;4.18;;;;;;;;;;4976685;28;20054;-85
2023/07/31 14:52:00;;;;;;;9.27;4.50;;;;;;;;;;4976987;28;20160;-84
2023/07/31 14:54:30;;;;;;;7.88;4.72;;;;;;;;;;4977112;28;20059;-84
2023/07/31 14:57:03;;;;;;;9.85;4.70;;;;;;;;;;4976594;28;20039;-84
2023/07/31 14:59:35;;;;;;;13.35;5.10;;;;;;;;;;4943348;28;20050;-86
2023/07/31 15:02:06;;;;;;;8.43;4.20;;;;;;;;;;4976931;28;20042;-83
2023/07/31 15:04:39;;;;;;;8.07;4.40;;;;;;;;;;4979720;28;20050;-83
2023/07/31 15:07:13;;;;;;;8.38;4.70;;;;;;;;;;4978095;28;20157;-82
2023/07/31 15:09:45;;;;;;;6.63;4.18;;;;;;;;;;4975473;28;20069;-83
2023/07/31 15:12:15;;;;;;;8.55;4.32;;;;;;;;;;4952284;28;20051;-82